createdAt,value
2022-09-20T00:01:05.916Z,9.753484
2022-09-20T00:06:07.630Z,9.29661
2022-09-20T00:11:09.327Z,9.406062
2022-09-20T00:16:11.263Z,9.534594
2022-09-20T00:21:12.948Z,9.426472
2022-09-20T00:26:14.795Z,9.427244
2022-09-20T00:31:16.481Z,9.031218
2022-09-20T00:36:18.146Z,9.443406
2022-09-20T00:41:19.906Z,9.765288
2022-09-20T00:46:21.934Z,8.9225
2022-09-20T00:51:23.736Z,9.499014
2022-09-20T00:56:25.448Z,9.412236
2022-09-20T01:01:27.255Z,9.51325
2022-09-20T01:06:29.083Z,9.108294
2022-09-20T01:11:30.846Z,8.946924
2022-09-20T01:16:33.741Z,8.6299
2022-09-20T01:21:35.561Z,8.970752
2022-09-20T01:26:37.309Z,9.689056
2022-09-20T01:31:39.331Z,9.392928
2022-09-20T01:36:41.119Z,8.518536
2022-09-20T01:41:42.845Z,8.665656
2022-09-20T01:46:44.878Z,8.88939
2022-09-20T01:51:46.613Z,8.496472
2022-09-20T01:56:48.335Z,8.520462
2022-09-20T02:01:49.866Z,8.415868
2022-09-20T02:06:51.619Z,8.647392
2022-09-20T02:11:53.321Z,8.802302
2022-09-20T02:16:55.130Z,8.662848
2022-09-20T02:21:56.778Z,8.510436
2022-09-20T02:26:58.260Z,8.656946
2022-09-20T02:31:59.811Z,8.740072
2022-09-20T02:37:01.391Z,8.403792
2022-09-20T02:42:03.051Z,8.08693
2022-09-20T02:47:04.708Z,8.663282
2022-09-20T02:52:06.221Z,8.41952
2022-09-20T02:57:07.824Z,8.746856
2022-09-20T03:02:09.665Z,8.95808
2022-09-20T03:07:11.206Z,8.832466
2022-09-20T03:12:12.733Z,8.77128
2022-09-20T03:17:15.309Z,8.508386
2022-09-20T03:22:17.019Z,8.212706
2022-09-20T03:27:18.668Z,8.902038
2022-09-20T03:32:20.430Z,7.61224
2022-09-20T03:37:22.055Z,8.459114
2022-09-20T03:42:23.779Z,8.237416
2022-09-20T03:47:25.699Z,8.015732
2022-09-20T03:52:27.350Z,8.089428
2022-09-20T03:57:28.844Z,7.773896
2022-09-20T04:02:30.491Z,7.766702
2022-09-20T04:07:32.160Z,8.005134
2022-09-20T04:12:33.928Z,7.75844
2022-09-20T04:17:35.905Z,8.162242
2022-09-20T04:22:37.695Z,7.72194
2022-09-20T04:27:39.440Z,7.397016
2022-09-20T04:32:41.353Z,8.215204
2022-09-20T04:37:43.066Z,7.644592
2022-09-20T04:42:44.802Z,7.65284
2022-09-20T04:47:46.766Z,7.719766
2022-09-20T04:52:48.484Z,7.623696
2022-09-20T04:57:50.295Z,6.80567
2022-09-20T05:02:52.066Z,8.028962
2022-09-20T05:07:53.820Z,7.45496
2022-09-20T05:12:55.256Z,7.98717
2022-09-20T05:17:57.053Z,6.744894
2022-09-20T05:22:58.501Z,7.435404
2022-09-20T05:27:59.947Z,6.95218
2022-09-20T05:33:01.692Z,7.738302
2022-09-20T05:38:03.238Z,8.497788
2022-09-20T05:43:04.668Z,7.160472
2022-09-20T05:48:06.797Z,7.606476
2022-09-20T05:53:08.534Z,7.849952
2022-09-20T05:58:10.295Z,6.700046
2022-09-20T06:03:12.044Z,8.022788
2022-09-20T06:08:13.496Z,8.325238
2022-09-20T06:13:15.216Z,8.116498
2022-09-20T06:18:17.596Z,7.705044
2022-09-20T06:23:19.041Z,8.61667
2022-09-20T06:28:20.575Z,8.375106
2022-09-20T06:33:22.100Z,9.591856
2022-09-20T06:38:23.660Z,10.475368
2022-09-20T06:43:25.107Z,10.754276
2022-09-20T06:48:27.489Z,9.395588
2022-09-20T06:53:29.261Z,9.372194
2022-09-20T06:58:30.764Z,10.078174
2022-09-20T07:03:32.357Z,10.71605
2022-09-20T07:08:33.798Z,10.877024
2022-09-20T07:13:35.606Z,11.279062
2022-09-20T07:18:37.701Z,11.903098
2022-09-20T07:23:39.469Z,12.627494
2022-09-20T07:28:41.215Z,12.237966
2022-09-20T07:33:42.983Z,14.601916
2022-09-20T07:38:44.765Z,14.039486
2022-09-20T07:43:46.196Z,14.594764
2022-09-20T07:48:47.893Z,14.26668
2022-09-20T07:53:49.310Z,14.537664
2022-09-20T07:58:52.538Z,16.353256
2022-09-20T08:03:54.165Z,15.646038
2022-09-20T08:08:55.913Z,16.096832
2022-09-20T08:14:17.806Z,15.544442
2022-09-20T08:19:21.060Z,16.290768
2022-09-20T08:24:22.562Z,15.297206
2022-09-20T08:29:24.481Z,17.297222
2022-09-20T08:34:26.031Z,17.342232
2022-09-20T08:39:58.206Z,18.76226
2022-09-20T08:45:00.800Z,18.010628
2022-09-20T08:50:08.949Z,16.299236
2022-09-20T08:55:11.189Z,18.384632
2022-09-20T09:00:13.169Z,18.973592
2022-09-20T09:05:14.964Z,20.510862
2022-09-20T09:10:16.668Z,20.215968
2022-09-20T09:15:18.422Z,20.531976
2022-09-20T09:20:20.750Z,20.754938
2022-09-20T09:25:22.489Z,19.590546
2022-09-20T09:30:24.200Z,19.427318
2022-09-20T09:35:25.933Z,20.46729
2022-09-20T09:40:27.509Z,20.476178
2022-09-20T09:45:29.430Z,20.80961
2022-09-20T09:50:31.405Z,20.36408
2022-09-20T09:55:32.867Z,21.127328
2022-09-20T10:00:34.448Z,20.73609
2022-09-20T10:05:36.225Z,18.982602
2022-09-20T10:10:37.945Z,22.978396
2022-09-20T10:15:39.547Z,22.624216
2022-09-20T10:20:41.854Z,22.21512
2022-09-20T10:25:43.645Z,20.936716
2022-09-20T10:30:45.389Z,21.887374
2022-09-20T10:35:47.200Z,21.566046
2022-09-20T10:40:48.971Z,21.192706
2022-09-20T10:46:20.540Z,22.82681
2022-09-20T10:51:29.511Z,21.462144
2022-09-20T10:56:31.175Z,22.704548
2022-09-20T11:01:32.801Z,21.918896
2022-09-20T11:06:34.552Z,21.76902
2022-09-20T11:11:36.040Z,21.780052
2022-09-20T11:16:37.583Z,22.650514
2022-09-20T11:21:39.638Z,23.203936
2022-09-20T11:26:41.090Z,22.917482
2022-09-20T11:31:42.591Z,22.376354
2022-09-20T11:36:44.185Z,21.413402
2022-09-20T11:41:45.735Z,22.276916
2022-09-20T11:46:47.183Z,21.2743
2022-09-20T11:51:48.815Z,21.358662
2022-09-20T11:56:50.285Z,21.2004
2022-09-20T12:01:51.782Z,21.699788
2022-09-20T12:06:53.448Z,20.77095
2022-09-20T12:11:55.162Z,23.255392
2022-09-20T12:16:56.617Z,22.19482
2022-09-20T12:21:59.570Z,22.356936
2022-09-20T12:27:01.053Z,23.35445
2022-09-20T12:32:02.822Z,21.713466
2022-09-20T12:37:04.430Z,22.826172
2022-09-20T12:42:05.996Z,22.271366
2022-09-20T12:47:07.669Z,22.01178
2022-09-20T12:52:09.330Z,22.725934
2022-09-20T12:57:10.946Z,22.326974
2022-09-20T13:02:12.471Z,22.845536
2022-09-20T13:07:14.060Z,23.098446
2022-09-20T13:12:15.629Z,22.3181
2022-09-20T13:17:17.250Z,21.670844
2022-09-20T13:22:19.338Z,22.52334
2022-09-20T13:27:20.796Z,23.427278
2022-09-20T13:32:22.350Z,21.457476
2022-09-20T13:37:23.952Z,22.785518
2022-09-20T13:42:25.718Z,22.76918
2022-09-20T13:47:27.345Z,21.488374
2022-09-20T13:52:29.296Z,21.758924
2022-09-20T13:57:30.760Z,21.420906
2022-09-20T14:02:32.526Z,21.668008
2022-09-20T14:07:34.396Z,21.66756
2022-09-20T14:12:36.135Z,21.339882
2022-09-20T14:17:37.903Z,21.0905
2022-09-20T14:22:40.911Z,21.182054
2022-09-20T14:27:42.628Z,20.587598
2022-09-20T14:32:44.043Z,20.51918
2022-09-20T14:37:45.609Z,20.962946
2022-09-20T14:42:47.193Z,19.901276
2022-09-20T14:47:48.704Z,20.364704
2022-09-20T14:52:50.473Z,18.929098
2022-09-20T14:57:51.914Z,16.693892
2022-09-20T15:02:53.625Z,15.74853
2022-09-20T15:07:55.347Z,16.044224
2022-09-20T15:12:56.999Z,15.675606
2022-09-20T15:17:58.456Z,15.51223
2022-09-20T15:23:00.320Z,15.81137
2022-09-20T15:28:01.726Z,14.975296
2022-09-20T15:33:03.334Z,14.314704
2022-09-20T15:38:05.111Z,14.412594
2022-09-20T15:43:06.791Z,14.565116
2022-09-20T15:48:08.557Z,14.146998
2022-09-20T15:53:10.537Z,13.678468
2022-09-20T15:58:12.287Z,12.99512
2022-09-20T16:03:14.031Z,12.848706
2022-09-20T16:08:15.767Z,12.584792
2022-09-20T16:13:17.543Z,12.236584
2022-09-20T16:18:19.182Z,12.456356
2022-09-20T16:23:25.838Z,12.31849
2022-09-20T16:28:27.805Z,11.953686
2022-09-20T16:33:29.581Z,12.19802
2022-09-20T16:38:31.333Z,11.340792
2022-09-20T16:43:33.021Z,11.313598
2022-09-20T16:48:34.752Z,11.34063
2022-09-20T16:53:36.767Z,11.557484
2022-09-20T16:58:38.493Z,10.727912
2022-09-20T17:03:40.201Z,10.826222
2022-09-20T17:08:41.791Z,10.676442
2022-09-20T17:13:43.330Z,10.426492
2022-09-20T17:18:45.051Z,9.871432
2022-09-20T17:23:50.765Z,10.03428
2022-09-20T17:28:53.025Z,9.5762
2022-09-20T17:33:54.772Z,9.788144
2022-09-20T17:38:59.413Z,9.021464
2022-09-20T17:44:03.144Z,8.75508
2022-09-20T17:49:04.684Z,9.24494
2022-09-20T17:54:06.445Z,9.939278
2022-09-20T17:59:07.887Z,9.038956
2022-09-20T18:04:09.667Z,8.746532
2022-09-20T18:09:11.439Z,9.187082
2022-09-20T18:14:13.167Z,9.188846
2022-09-20T18:19:14.936Z,8.76728
2022-09-20T18:24:16.816Z,8.747538
2022-09-20T18:29:18.543Z,8.510722
2022-09-20T18:34:20.278Z,8.768758
2022-09-20T18:39:22.174Z,9.142382
2022-09-20T18:44:23.893Z,8.776548
2022-09-20T18:49:25.517Z,9.046188
2022-09-20T18:54:27.369Z,8.770932
2022-09-20T18:59:28.989Z,8.655306
2022-09-20T19:04:30.645Z,8.237268
2022-09-20T19:09:32.280Z,8.595288
2022-09-20T19:14:33.918Z,8.373032
2022-09-20T19:19:35.539Z,8.305944
2022-09-20T19:24:37.454Z,8.513206
2022-09-20T19:29:39.182Z,9.022794
2022-09-20T19:34:40.821Z,9.275986
2022-09-20T19:39:42.595Z,8.794798
2022-09-20T19:44:44.323Z,8.568366
2022-09-20T19:49:46.088Z,8.608966
2022-09-20T19:54:48.028Z,8.463176
2022-09-20T19:59:49.749Z,8.58233
2022-09-20T20:04:51.516Z,8.232086
2022-09-20T20:09:53.322Z,8.106758
2022-09-20T20:14:55.068Z,8.334034
2022-09-20T20:19:56.788Z,8.40332
2022-09-20T20:24:58.881Z,8.077638
2022-09-20T20:30:00.541Z,8.20678
2022-09-20T20:35:02.054Z,7.920816
2022-09-20T20:40:03.625Z,8.092484
2022-09-20T20:45:05.489Z,7.882142
2022-09-20T20:50:06.914Z,7.616626
2022-09-20T20:55:09.082Z,7.783884
2022-09-20T21:00:10.948Z,7.69282
2022-09-20T21:05:12.856Z,7.737258
2022-09-20T21:10:14.757Z,8.041448
2022-09-20T21:15:16.603Z,7.625012
2022-09-20T21:20:18.500Z,8.460568
2022-09-20T21:25:20.405Z,7.472452
2022-09-20T21:30:21.940Z,7.503946
2022-09-20T21:35:23.351Z,7.40862
2022-09-20T21:40:25.395Z,7.687528
2022-09-20T21:45:26.879Z,7.412596
2022-09-20T21:50:28.642Z,7.483508
2022-09-20T21:55:30.445Z,8.089104
2022-09-20T22:00:32.292Z,7.439356
2022-09-20T22:05:33.963Z,7.63028
2022-09-20T22:10:35.841Z,7.837118
2022-09-20T22:15:37.297Z,7.367138
2022-09-20T22:20:38.788Z,7.698846
2022-09-20T22:25:41.091Z,7.968186
2022-09-20T22:30:42.746Z,7.641188
2022-09-20T22:35:44.401Z,7.411552
2022-09-20T22:40:46.376Z,7.680148
2022-09-20T22:45:48.412Z,7.875396
2022-09-20T22:50:49.848Z,7.886104
2022-09-20T22:55:51.664Z,7.846548
2022-09-20T23:00:53.476Z,7.66883
2022-09-20T23:05:55.253Z,7.276222
2022-09-20T23:10:56.716Z,7.713554
2022-09-20T23:15:58.462Z,7.63869
2022-09-20T23:21:00.123Z,8.013496
2022-09-20T23:26:02.111Z,8.12486
2022-09-20T23:31:04.677Z,7.785486
2022-09-20T23:36:06.343Z,7.58117
2022-09-20T23:41:07.898Z,7.513648
2022-09-20T23:46:09.525Z,8.009396
2022-09-20T23:51:11.090Z,7.654866
2022-09-20T23:56:13.105Z,7.90905
